首页
METAR-TAF:

METAR-TAF

机场 :

St. Petersburg-Clearwater International Airport

聖彼德斯堡-克利爾沃特, 佛罗里达州, 美国

纬度: 27-54-44N, 经度: 082-41-08W, 海拔: 3米

当前天气观测

该预报发布于42分钟前的19:53 UTC
风速11节,风向南转西南
温度 30°C
湿度 59%
气压 1017 hPa
能見度: 16.1公里
天空无云

METAR: KPIE 281953Z 21011KT 10SM CLR 30/21 A3002 RMK AO2 SLP165 T03000206

时间: 16:35 (20:35 UTC)

预报

该预报发布于3小时和2分钟前的17:33 UTC
预报有效从28日的 18点(UTC)到 29日的 18点(UTC)
风速6节,风向东转东南
能見度: 10公里
天空无云
从 28日的 2000点(UTC)
风速9节,风向西
能見度: 10公里
天空无云
从 29日的 0100点(UTC)
风速3节,风向多变
能見度: 10公里
天空无云
从 29日的 0900点(UTC)
风速3节,风向多变
能見度: 9.7公里
少量云层高于1000英尺
轻雾
从 29日的 1400点(UTC)
风速8节,风向南转南东
能見度: 10公里
少量云层高于4000英尺
散云层高于25000英尺

TAF: KPIE 281733Z 2818/2918 11006KT P6SM SKC FM282000 26009KT P6SM SKC FM290100 VRB03KT P6SM SKC FM290900 VRB03KT 6SM BR FEW010 FM291400 15008KT P6SM FEW040 SCT250

超过4000个机场的气象观测和天气预报(METAR&TAF报告)。

可查询的气象台以黄色和红色小点在地图上表示。

将鼠标移到小点上方,可查看气象台名称。

然后点击查看天气观测和预报。

如需切换地图:点击带黑十字的绿色按钮放大地图;点击带横线的绿色按钮缩小地图;或者点击绿色箭头查看邻近地区的地图。


METAR-TAF: